KAL2002 VHHH-RKSI
Flight info
| Callsign | KAL2002 |
|---|---|
| Flight time | N/A |
| Altitude | 37000 |
| Route | DALOL1Y DALOL V631 ENVAR M750 ANLOT B1 APU DCT DRAKE Q11 WP900 L4 LIPLO Y741 ATOTI/N0481F390 Y722 OLMEN OLMEN2H |
| Aircraft | B77W/H-SDE1E2E3FGHIJ2J3J4J5M1RWXY/LB1D1 |
Departure
| Time | 2026-05-06 10:19 |
|---|---|
| Airport | Hong Kong International Airport (VHHH) |
Arrival
| Time | N/A |
|---|---|
| Airport | Incheon International Airport (RKSI) |
| Time | Latitude | Longitude | Altitude | Speed | Heading |
|---|---|---|---|---|---|
| 2026-05-06 09:53 | 22.31364 | 113.93363 | 41 ft | 0 kts | 26° |
| 2026-05-06 10:00 | 22.31359 | 113.93361 | 41 ft | 2 kts | 26° |
| 2026-05-06 10:00 | 22.31346 | 113.93354 | 41 ft | 2 kts | 25° |
| 2026-05-06 10:00 | 22.31332 | 113.93348 | 41 ft | 2 kts | 18° |
| 2026-05-06 10:00 | 22.31318 | 113.93343 | 41 ft | 2 kts | 12° |
| 2026-05-06 10:01 | 22.31303 | 113.93340 | 41 ft | 2 kts | 6° |
| 2026-05-06 10:01 | 22.31288 | 113.93340 | 41 ft | 2 kts | 359° |
| 2026-05-06 10:01 | 22.31273 | 113.93340 | 41 ft | 2 kts | 353° |
| 2026-05-06 10:01 | 22.31258 | 113.93343 | 41 ft | 2 kts | 347° |
| 2026-05-06 10:02 | 22.31243 | 113.93347 | 41 ft | 2 kts | 341° |
| 2026-05-06 10:02 | 22.31229 | 113.93353 | 41 ft | 2 kts | 337° |
| 2026-05-06 10:02 | 22.31217 | 113.93359 | 41 ft | 0 kts | 338° |
| 2026-05-06 10:02 | 22.31212 | 113.93361 | 41 ft | 0 kts | 340° |
| 2026-05-06 10:03 | 22.31212 | 113.93360 | 41 ft | 0 kts | 340° |
| 2026-05-06 10:05 | 22.31217 | 113.93359 | 41 ft | 2 kts | 340° |
| 2026-05-06 10:05 | 22.31252 | 113.93342 | 41 ft | 8 kts | 327° |
| 2026-05-06 10:06 | 22.31287 | 113.93276 | 41 ft | 13 kts | 274° |
| 2026-05-06 10:06 | 22.31264 | 113.93175 | 41 ft | 13 kts | 251° |
| 2026-05-06 10:06 | 22.31224 | 113.93087 | 41 ft | 12 kts | 214° |
| 2026-05-06 10:06 | 22.31143 | 113.93093 | 41 ft | 11 kts | 156° |
| 2026-05-06 10:07 | 22.31069 | 113.93124 | 41 ft | 11 kts | 161° |
| 2026-05-06 10:07 | 22.30999 | 113.93150 | 41 ft | 9 kts | 165° |
| 2026-05-06 10:07 | 22.30964 | 113.93109 | 41 ft | 8 kts | 251° |
| 2026-05-06 10:07 | 22.30945 | 113.93048 | 41 ft | 9 kts | 251° |
| 2026-05-06 10:08 | 22.30920 | 113.92970 | 41 ft | 12 kts | 251° |
| 2026-05-06 10:08 | 22.30888 | 113.92873 | 41 ft | 15 kts | 250° |
| 2026-05-06 10:08 | 22.30851 | 113.92757 | 41 ft | 17 kts | 252° |
| 2026-05-06 10:08 | 22.30809 | 113.92624 | 41 ft | 19 kts | 251° |
| 2026-05-06 10:09 | 22.30761 | 113.92477 | 41 ft | 21 kts | 250° |
| 2026-05-06 10:09 | 22.30713 | 113.92333 | 41 ft | 19 kts | 251° |
| 2026-05-06 10:09 | 22.30671 | 113.92197 | 41 ft | 18 kts | 251° |
| 2026-05-06 10:09 | 22.30630 | 113.92072 | 41 ft | 17 kts | 252° |
| 2026-05-06 10:10 | 22.30593 | 113.91952 | 41 ft | 16 kts | 251° |
| 2026-05-06 10:10 | 22.30556 | 113.91842 | 41 ft | 15 kts | 251° |
| 2026-05-06 10:10 | 22.30522 | 113.91737 | 41 ft | 14 kts | 251° |
| 2026-05-06 10:10 | 22.30528 | 113.91645 | 41 ft | 12 kts | 320° |
| 2026-05-06 10:11 | 22.30600 | 113.91618 | 41 ft | 10 kts | 341° |
| 2026-05-06 10:11 | 22.30667 | 113.91594 | 41 ft | 10 kts | 340° |
| 2026-05-06 10:11 | 22.30743 | 113.91564 | 41 ft | 12 kts | 341° |
| 2026-05-06 10:11 | 22.30831 | 113.91531 | 41 ft | 14 kts | 340° |
| 2026-05-06 10:12 | 22.30934 | 113.91493 | 41 ft | 17 kts | 341° |
| 2026-05-06 10:12 | 22.31067 | 113.91444 | 41 ft | 22 kts | 341° |
| 2026-05-06 10:12 | 22.31211 | 113.91391 | 41 ft | 19 kts | 341° |
| 2026-05-06 10:12 | 22.31290 | 113.91358 | 41 ft | 8 kts | 325° |
| 2026-05-06 10:13 | 22.31298 | 113.91314 | 41 ft | 6 kts | 252° |
| 2026-05-06 10:13 | 22.31283 | 113.91260 | 41 ft | 9 kts | 253° |
| 2026-05-06 10:13 | 22.31258 | 113.91182 | 41 ft | 12 kts | 251° |
| 2026-05-06 10:13 | 22.31224 | 113.91078 | 41 ft | 16 kts | 250° |
| 2026-05-06 10:14 | 22.31185 | 113.90953 | 41 ft | 19 kts | 251° |
| 2026-05-06 10:14 | 22.31138 | 113.90810 | 41 ft | 21 kts | 250° |
| 2026-05-06 10:14 | 22.31085 | 113.90648 | 41 ft | 23 kts | 251° |
| 2026-05-06 10:14 | 22.31031 | 113.90479 | 41 ft | 23 kts | 251° |
| 2026-05-06 10:15 | 22.30980 | 113.90318 | 41 ft | 21 kts | 251° |
| 2026-05-06 10:15 | 22.30932 | 113.90170 | 41 ft | 20 kts | 251° |
| 2026-05-06 10:15 | 22.30887 | 113.90031 | 41 ft | 18 kts | 251° |
| 2026-05-06 10:15 | 22.30846 | 113.89903 | 41 ft | 17 kts | 251° |
| 2026-05-06 10:16 | 22.30812 | 113.89799 | 41 ft | 10 kts | 251° |
| 2026-05-06 10:16 | 22.30834 | 113.89731 | 41 ft | 10 kts | 328° |
| 2026-05-06 10:16 | 22.30890 | 113.89706 | 41 ft | 5 kts | 341° |
| 2026-05-06 10:16 | 22.30896 | 113.89703 | 41 ft | 0 kts | 341° |
| 2026-05-06 10:17 | 22.30907 | 113.89700 | 41 ft | 3 kts | 341° |
| 2026-05-06 10:17 | 22.30947 | 113.89684 | 41 ft | 8 kts | 341° |
| 2026-05-06 10:18 | 22.30999 | 113.89665 | 41 ft | 7 kts | 341° |
| 2026-05-06 10:18 | 22.31043 | 113.89676 | 41 ft | 6 kts | 50° |
| 2026-05-06 10:18 | 22.31067 | 113.89718 | 41 ft | 7 kts | 68° |
| 2026-05-06 10:18 | 22.31084 | 113.89773 | 41 ft | 8 kts | 71° |
| 2026-05-06 10:19 | 22.31137 | 113.89939 | 41 ft | 55 kts | 71° |
| 2026-05-06 10:19 | 22.31362 | 113.90636 | 41 ft | 139 kts | 72° |
| 2026-05-06 10:19 | 22.31718 | 113.91798 | 429 ft | 176 kts | 72° |
| 2026-05-06 10:19 | 22.32135 | 113.93057 | 1451 ft | 183 kts | 70° |
| 2026-05-06 10:20 | 22.32589 | 113.94334 | 2268 ft | 190 kts | 73° |